createdAt,value
2022-09-14T00:00:24.550Z,63.25
2022-09-14T00:01:25.645Z,63.27
2022-09-14T00:01:59.097Z,63.26
2022-09-14T00:02:31.138Z,63.20
2022-09-14T00:03:03.119Z,63.15
2022-09-14T00:03:35.008Z,63.20
2022-09-14T00:04:12.949Z,63.22
2022-09-14T00:04:44.790Z,63.20
2022-09-14T00:05:16.545Z,63.25
2022-09-14T00:05:48.871Z,63.21
2022-09-14T00:06:20.893Z,63.22
2022-09-14T00:06:52.650Z,63.25
2022-09-14T00:07:24.444Z,63.28
2022-09-14T00:07:56.251Z,63.13
2022-09-14T00:08:27.991Z,63.25
2022-09-14T00:09:01.146Z,63.21
2022-09-14T00:09:33.674Z,63.16
2022-09-14T00:10:06.327Z,63.23
2022-09-14T00:10:43.137Z,63.25
2022-09-14T00:11:15.587Z,63.18
2022-09-14T00:11:47.893Z,63.21
2022-09-14T00:12:19.674Z,63.17
2022-09-14T00:12:51.523Z,63.19
2022-09-14T00:13:23.331Z,63.09
2022-09-14T00:13:56.615Z,63.12
2022-09-14T00:14:28.400Z,63.04
2022-09-14T00:15:00.666Z,63.12
2022-09-14T00:15:37.018Z,63.07
2022-09-14T00:16:24.210Z,63.10
2022-09-14T00:16:56.076Z,63.14
2022-09-14T00:17:27.761Z,63.09
2022-09-14T00:17:59.454Z,63.12
2022-09-14T00:18:32.760Z,63.10
2022-09-14T00:19:25.809Z,63.10
2022-09-14T00:19:57.683Z,63.11
2022-09-14T00:20:30.194Z,63.13
2022-09-14T00:21:03.889Z,63.20
2022-09-14T00:21:38.253Z,63.17
2022-09-14T00:22:10.062Z,63.23
2022-09-14T00:22:41.751Z,63.15
2022-09-14T00:23:13.407Z,63.26
2022-09-14T00:23:45.274Z,63.31
2022-09-14T00:24:17.305Z,63.29
2022-09-14T00:24:49.026Z,63.31
2022-09-14T00:25:20.731Z,63.29
2022-09-14T00:25:52.539Z,63.29
2022-09-14T00:26:25.270Z,63.33
2022-09-14T00:26:57.136Z,63.31
2022-09-14T00:27:28.785Z,63.29
2022-09-14T00:28:00.967Z,63.29
2022-09-14T00:29:04.132Z,63.26
2022-09-14T00:29:36.269Z,63.18
2022-09-14T00:30:08.638Z,63.17
2022-09-14T00:30:41.815Z,63.17
2022-09-14T00:31:14.669Z,63.05
2022-09-14T00:31:46.517Z,63.02
2022-09-14T00:32:18.306Z,63.09
2022-09-14T00:32:51.300Z,63.10
2022-09-14T00:33:22.985Z,63.12
2022-09-14T00:33:54.701Z,62.99
2022-09-14T00:34:27.054Z,63.06
2022-09-14T00:34:58.668Z,63.07
2022-09-14T00:35:30.403Z,62.92
2022-09-14T00:36:10.981Z,63.04
2022-09-14T00:36:45.879Z,63.00
2022-09-14T00:37:17.655Z,63.06
2022-09-14T00:37:50.763Z,63.03
2022-09-14T00:38:26.004Z,63.05
2022-09-14T00:39:00.118Z,63.04
2022-09-14T00:39:31.920Z,62.98
2022-09-14T00:40:05.640Z,62.98
2022-09-14T00:40:38.804Z,63.04
2022-09-14T00:41:14.600Z,62.96
2022-09-14T00:41:48.213Z,63.03
2022-09-14T00:42:20.729Z,63.07
2022-09-14T00:42:52.641Z,63.03
2022-09-14T00:43:24.571Z,63.00
2022-09-14T00:44:02.876Z,62.96
2022-09-14T00:44:34.505Z,63.01
2022-09-14T00:45:21.526Z,62.98
2022-09-14T00:45:53.431Z,63.07
2022-09-14T00:46:27.374Z,62.97
2022-09-14T00:47:02.333Z,63.07
2022-09-14T00:47:35.059Z,63.03
2022-09-14T00:48:07.480Z,63.04
2022-09-14T00:48:39.191Z,62.99
2022-09-14T00:49:38.985Z,63.03
2022-09-14T00:50:11.238Z,63.00
2022-09-14T00:50:44.023Z,63.01
2022-09-14T00:51:18.087Z,63.00
2022-09-14T00:52:08.380Z,62.97
2022-09-14T00:52:44.170Z,63.01
2022-09-14T00:53:15.997Z,63.05
2022-09-14T00:53:48.339Z,62.99
2022-09-14T00:54:20.554Z,63.06
2022-09-14T00:54:52.166Z,62.96
2022-09-14T00:55:24.412Z,63.06
2022-09-14T00:55:56.388Z,63.14
2022-09-14T00:56:28.737Z,63.07
2022-09-14T00:57:03.556Z,63.08
2022-09-14T00:57:43.407Z,63.04
2022-09-14T00:58:15.431Z,63.14
2022-09-14T00:58:50.714Z,63.00
2022-09-14T00:59:27.159Z,63.02
2022-09-14T00:59:59.782Z,63.02
2022-09-14T01:00:31.806Z,63.02
2022-09-14T01:01:03.953Z,63.00
2022-09-14T01:01:35.884Z,62.96
2022-09-14T01:02:10.444Z,62.93
2022-09-14T01:02:42.530Z,62.87
2022-09-14T01:03:14.473Z,62.94
2022-09-14T01:03:46.441Z,62.96
2022-09-14T01:04:18.175Z,62.90
2022-09-14T01:04:50.819Z,62.87
2022-09-14T01:05:34.060Z,62.86
2022-09-14T01:06:30.842Z,62.95
2022-09-14T01:07:18.748Z,62.86
2022-09-14T01:07:50.457Z,62.81
2022-09-14T01:08:32.302Z,62.78
2022-09-14T01:09:25.710Z,62.80
2022-09-14T01:10:22.172Z,62.83
2022-09-14T01:10:53.883Z,62.76
2022-09-14T01:11:40.922Z,62.86
2022-09-14T01:12:44.633Z,62.75
2022-09-14T01:13:41.555Z,62.84
2022-09-14T01:14:48.410Z,62.87
2022-09-14T01:15:25.709Z,62.75
2022-09-14T01:16:26.796Z,62.89
2022-09-14T01:17:14.471Z,62.82
2022-09-14T01:18:01.279Z,62.92
2022-09-14T01:18:32.969Z,62.90
2022-09-14T01:19:24.636Z,62.91
2022-09-14T01:20:07.548Z,62.95
2022-09-14T01:21:14.437Z,62.94
2022-09-14T01:21:47.962Z,62.91
2022-09-14T01:22:32.088Z,62.94
2022-09-14T01:23:22.233Z,62.91
2022-09-14T01:23:59.073Z,62.96
2022-09-14T01:24:45.751Z,62.96
2022-09-14T01:25:35.561Z,62.97
2022-09-14T01:26:10.914Z,62.87
2022-09-14T01:26:52.250Z,62.94
2022-09-14T01:27:43.484Z,62.87
2022-09-14T01:28:43.164Z,62.92
2022-09-14T01:29:24.812Z,62.96
2022-09-14T01:30:02.785Z,62.95
2022-09-14T01:30:37.920Z,62.96
2022-09-14T01:31:17.732Z,62.92
2022-09-14T01:32:07.644Z,62.96
2022-09-14T01:33:03.492Z,63.00
2022-09-14T01:33:46.229Z,63.01
2022-09-14T01:34:26.946Z,63.13
2022-09-14T01:35:04.880Z,63.16
2022-09-14T01:35:55.641Z,63.23
2022-09-14T01:36:30.424Z,63.33
2022-09-14T01:37:12.682Z,63.27
2022-09-14T01:37:53.530Z,63.26
2022-09-14T01:38:25.110Z,63.28
2022-09-14T01:38:58.358Z,63.34
2022-09-14T01:39:33.065Z,63.31
2022-09-14T01:40:26.810Z,63.27
2022-09-14T01:41:01.564Z,63.34
2022-09-14T01:41:36.067Z,63.28
2022-09-14T01:42:11.949Z,63.25
2022-09-14T01:42:48.715Z,63.26
2022-09-14T01:43:26.412Z,63.30
2022-09-14T01:44:05.326Z,63.25
2022-09-14T01:44:41.549Z,63.22
2022-09-14T01:45:17.006Z,63.26
2022-09-14T01:45:55.737Z,63.23
2022-09-14T01:46:39.692Z,63.20
2022-09-14T01:47:39.690Z,63.26
2022-09-14T01:48:13.819Z,63.27
2022-09-14T01:48:53.466Z,63.20
2022-09-14T01:49:41.188Z,63.24
2022-09-14T01:50:20.218Z,63.20
2022-09-14T01:50:56.408Z,63.22
2022-09-14T01:51:35.995Z,63.26
2022-09-14T01:52:19.377Z,63.14
2022-09-14T01:53:14.650Z,63.26
2022-09-14T01:54:13.805Z,63.25
2022-09-14T01:55:07.236Z,63.26
2022-09-14T01:55:44.365Z,63.26
2022-09-14T01:56:25.590Z,63.24
2022-09-14T01:57:27.520Z,63.29
2022-09-14T01:58:10.062Z,63.20
2022-09-14T01:58:49.648Z,63.23
2022-09-14T01:59:28.849Z,63.20
2022-09-14T02:00:08.791Z,63.17
2022-09-14T02:00:45.856Z,63.19
2022-09-14T02:01:27.663Z,63.26
2022-09-14T02:02:03.643Z,63.26
2022-09-14T02:02:46.244Z,63.25
2022-09-14T02:03:34.729Z,63.24
2022-09-14T02:04:11.420Z,63.31
2022-09-14T02:04:48.667Z,63.26
2022-09-14T02:05:44.755Z,63.35
2022-09-14T02:06:41.045Z,63.36
2022-09-14T02:07:14.161Z,63.36
2022-09-14T02:07:45.998Z,63.46
2022-09-14T02:08:17.810Z,63.50
2022-09-14T02:08:50.782Z,63.47
2022-09-14T02:09:26.252Z,63.47
2022-09-14T02:09:58.779Z,63.40
2022-09-14T02:10:31.387Z,63.36
2022-09-14T02:11:03.155Z,63.29
2022-09-14T02:11:35.094Z,63.33
2022-09-14T02:12:07.541Z,63.31
2022-09-14T02:12:40.146Z,63.24
2022-09-14T02:13:11.942Z,63.21
2022-09-14T02:13:43.719Z,63.25
2022-09-14T02:14:15.866Z,63.19
2022-09-14T02:14:48.826Z,63.16
2022-09-14T02:15:21.760Z,63.16
2022-09-14T02:15:54.142Z,63.14
2022-09-14T02:16:27.171Z,63.16
2022-09-14T02:16:59.471Z,63.09
2022-09-14T02:17:31.276Z,63.08
2022-09-14T02:18:04.471Z,63.01
2022-09-14T02:18:38.095Z,63.07
2022-09-14T02:19:10.322Z,63.15
2022-09-14T02:19:49.598Z,63.11
2022-09-14T02:20:42.908Z,63.09
2022-09-14T02:21:19.487Z,63.04
2022-09-14T02:21:51.244Z,63.09
2022-09-14T02:22:24.757Z,63.11
2022-09-14T02:22:56.853Z,63.05
2022-09-14T02:23:29.108Z,63.09
2022-09-14T02:24:01.480Z,63.04
2022-09-14T02:24:33.394Z,63.04
2022-09-14T02:25:05.576Z,63.03
2022-09-14T02:25:40.618Z,63.08
2022-09-14T02:26:12.481Z,63.06
2022-09-14T02:26:46.813Z,63.08
2022-09-14T02:27:18.702Z,63.05
2022-09-14T02:27:52.189Z,63.11
2022-09-14T02:28:24.063Z,63.15
2022-09-14T02:28:57.087Z,63.08
2022-09-14T02:29:28.923Z,63.09
2022-09-14T02:30:01.100Z,63.07
2022-09-14T02:30:43.220Z,63.07
2022-09-14T02:31:33.104Z,63.13
2022-09-14T02:32:23.176Z,63.14
2022-09-14T02:32:57.542Z,63.21
2022-09-14T02:33:45.988Z,63.23
2022-09-14T02:34:20.690Z,63.31
2022-09-14T02:35:18.954Z,63.30
2022-09-14T02:35:54.546Z,63.33
2022-09-14T02:36:51.670Z,63.36
2022-09-14T02:37:54.422Z,63.35
2022-09-14T02:38:55.987Z,63.36
2022-09-14T02:39:45.868Z,63.35
2022-09-14T02:40:20.406Z,63.36
2022-09-14T02:41:03.757Z,63.36
2022-09-14T02:41:48.578Z,63.31
2022-09-14T02:42:36.523Z,63.33
2022-09-14T02:43:28.021Z,63.25
2022-09-14T02:44:30.928Z,63.32
2022-09-14T02:45:31.518Z,63.35
2022-09-14T02:46:43.188Z,63.36
2022-09-14T02:47:27.735Z,63.34
2022-09-14T02:48:13.475Z,63.44
2022-09-14T02:48:51.072Z,63.43
2022-09-14T02:49:42.334Z,63.40
2022-09-14T02:50:13.805Z,63.46
2022-09-14T02:51:06.055Z,63.46
2022-09-14T02:51:48.578Z,63.43
2022-09-14T02:52:39.139Z,63.52
2022-09-14T02:53:17.148Z,63.55
2022-09-14T02:53:59.264Z,63.54
2022-09-14T02:54:44.305Z,63.56
2022-09-14T02:55:20.095Z,63.58
2022-09-14T02:56:02.871Z,63.62
2022-09-14T02:56:36.832Z,63.64
2022-09-14T02:57:09.637Z,63.66
2022-09-14T02:58:00.489Z,63.67
2022-09-14T02:58:38.220Z,63.71
2022-09-14T02:59:10.837Z,63.72
2022-09-14T02:59:42.652Z,63.75
2022-09-14T03:00:14.435Z,63.73
2022-09-14T03:00:48.835Z,63.78
2022-09-14T03:01:22.492Z,63.84
2022-09-14T03:01:55.663Z,63.80
2022-09-14T03:02:27.491Z,63.78
2022-09-14T03:02:59.369Z,63.80
2022-09-14T03:03:35.444Z,63.74
2022-09-14T03:04:07.620Z,63.75
2022-09-14T03:04:39.413Z,63.76
2022-09-14T03:05:11.045Z,63.77
2022-09-14T03:05:42.853Z,63.74
2022-09-14T03:06:15.244Z,63.72
2022-09-14T03:06:46.886Z,63.71
2022-09-14T03:07:18.718Z,63.68
2022-09-14T03:07:50.590Z,63.71
2022-09-14T03:08:23.351Z,63.67
2022-09-14T03:08:55.114Z,63.71
2022-09-14T03:09:26.994Z,63.67
2022-09-14T03:09:58.645Z,63.64
2022-09-14T03:10:31.876Z,63.64
2022-09-14T03:11:04.831Z,63.65
2022-09-14T03:11:36.597Z,63.61
2022-09-14T03:12:08.332Z,63.58
2022-09-14T03:12:40.047Z,63.65
2022-09-14T03:13:12.466Z,63.63
2022-09-14T03:13:44.184Z,63.65
2022-09-14T03:14:15.874Z,63.69
2022-09-14T03:14:47.896Z,63.64
2022-09-14T03:15:19.661Z,63.68
2022-09-14T03:15:52.048Z,63.60
2022-09-14T03:16:23.921Z,63.73
2022-09-14T03:16:55.739Z,63.67
2022-09-14T03:17:27.433Z,63.68
2022-09-14T03:17:59.197Z,63.66
2022-09-14T03:18:30.865Z,63.80
2022-09-14T03:19:02.640Z,63.76
2022-09-14T03:19:34.339Z,63.75
2022-09-14T03:20:06.814Z,63.77
2022-09-14T03:20:38.756Z,63.87
2022-09-14T03:21:13.309Z,63.84
2022-09-14T03:21:45.081Z,63.95
2022-09-14T03:22:16.847Z,63.96
2022-09-14T03:22:48.905Z,63.96
2022-09-14T03:23:20.701Z,64.01
2022-09-14T03:23:54.813Z,63.93
2022-09-14T03:24:26.560Z,63.90
2022-09-14T03:24:58.214Z,64.01
2022-09-14T03:25:30.150Z,63.92
2022-09-14T03:26:05.887Z,63.93
2022-09-14T03:26:38.192Z,63.92
2022-09-14T03:27:10.051Z,63.76
2022-09-14T03:27:41.865Z,63.80
2022-09-14T03:28:13.654Z,63.78
2022-09-14T03:28:50.541Z,63.78
2022-09-14T03:29:22.237Z,63.77
2022-09-14T03:29:53.974Z,63.80
2022-09-14T03:30:27.384Z,63.87
2022-09-14T03:31:04.454Z,63.82
2022-09-14T03:31:36.402Z,63.85
2022-09-14T03:32:10.498Z,63.82
2022-09-14T03:32:42.331Z,63.85
2022-09-14T03:33:15.023Z,63.75
2022-09-14T03:33:47.408Z,63.81
2022-09-14T03:34:19.024Z,63.83
2022-09-14T03:34:50.754Z,63.82
2022-09-14T03:35:22.669Z,63.84
2022-09-14T03:35:54.435Z,63.90
2022-09-14T03:36:28.291Z,63.88
2022-09-14T03:37:00.244Z,63.85
2022-09-14T03:37:31.917Z,63.86
2022-09-14T03:38:03.640Z,63.85
2022-09-14T03:38:35.333Z,63.84
2022-09-14T03:39:06.988Z,63.90
2022-09-14T03:39:38.850Z,63.86
2022-09-14T03:40:13.021Z,63.93
2022-09-14T03:40:45.127Z,63.94
2022-09-14T03:41:18.257Z,63.93
2022-09-14T03:41:49.990Z,64.03
2022-09-14T03:42:22.412Z,64.00
2022-09-14T03:42:54.849Z,64.04
2022-09-14T03:43:27.076Z,63.99
2022-09-14T03:43:58.761Z,63.96
2022-09-14T03:44:30.450Z,63.95
2022-09-14T03:45:03.391Z,64.02
2022-09-14T03:45:36.708Z,63.97
2022-09-14T03:46:10.815Z,63.97
2022-09-14T03:46:43.994Z,63.99
2022-09-14T03:47:15.706Z,63.97
2022-09-14T03:47:48.340Z,63.92
2022-09-14T03:48:19.979Z,63.99
2022-09-14T03:48:53.890Z,63.85
2022-09-14T03:49:25.552Z,63.91
2022-09-14T03:49:57.607Z,63.90
2022-09-14T03:50:29.424Z,63.88
2022-09-14T03:51:02.974Z,63.88
2022-09-14T03:51:34.780Z,63.86
2022-09-14T03:52:07.654Z,63.81
2022-09-14T03:52:40.110Z,63.85
2022-09-14T03:53:11.813Z,63.90
2022-09-14T03:53:44.829Z,63.87
2022-09-14T03:54:16.628Z,63.82
2022-09-14T03:54:48.376Z,63.88
2022-09-14T03:55:20.128Z,63.84
2022-09-14T03:55:51.902Z,63.82
2022-09-14T03:56:23.800Z,63.85
2022-09-14T03:56:55.686Z,63.85
2022-09-14T03:57:27.875Z,63.81
2022-09-14T03:57:59.759Z,63.82
2022-09-14T03:58:31.896Z,63.80
2022-09-14T03:59:04.330Z,63.81
2022-09-14T03:59:39.408Z,63.82
2022-09-14T04:00:14.656Z,63.82
2022-09-14T04:00:46.456Z,63.77
2022-09-14T04:01:21.264Z,63.73
2022-09-14T04:01:53.300Z,63.68
2022-09-14T04:02:25.627Z,63.70
2022-09-14T04:03:00.169Z,63.77
2022-09-14T04:03:32.758Z,63.65
2022-09-14T04:04:04.605Z,63.77
2022-09-14T04:04:36.304Z,63.73
2022-09-14T04:05:08.401Z,63.77
2022-09-14T04:05:40.295Z,63.75
2022-09-14T04:06:13.683Z,63.81
2022-09-14T04:06:45.728Z,63.85
2022-09-14T04:07:17.685Z,63.88
2022-09-14T04:07:49.521Z,63.83
2022-09-14T04:08:22.396Z,63.83
2022-09-14T04:08:54.995Z,63.83
2022-09-14T04:09:26.682Z,63.78
2022-09-14T04:09:58.349Z,63.77
2022-09-14T04:10:30.248Z,63.75
2022-09-14T04:11:11.693Z,63.71
2022-09-14T04:11:43.404Z,63.69
2022-09-14T04:12:15.120Z,63.69
2022-09-14T04:12:46.870Z,63.70
2022-09-14T04:13:18.620Z,63.69
2022-09-14T04:13:51.163Z,63.70
2022-09-14T04:14:23.537Z,63.70
2022-09-14T04:14:55.437Z,63.72
2022-09-14T04:15:27.829Z,63.69
2022-09-14T04:16:00.253Z,63.73
2022-09-14T04:16:32.259Z,63.65
2022-09-14T04:17:04.410Z,63.62
2022-09-14T04:17:36.504Z,63.64
2022-09-14T04:18:08.627Z,63.54
2022-09-14T04:18:40.431Z,63.57
2022-09-14T04:19:12.704Z,63.61
2022-09-14T04:19:44.535Z,63.64
2022-09-14T04:20:17.846Z,63.62
2022-09-14T04:21:04.605Z,63.62
2022-09-14T04:21:39.257Z,63.58
2022-09-14T04:22:11.188Z,63.61
2022-09-14T04:22:43.214Z,63.66
2022-09-14T04:23:14.886Z,63.60
2022-09-14T04:24:12.694Z,63.59
2022-09-14T04:24:38.945Z,63.64
2022-09-14T04:25:11.082Z,63.70
2022-09-14T04:25:43.021Z,63.60
2022-09-14T04:26:18.871Z,63.66
2022-09-14T04:26:50.723Z,63.64
2022-09-14T04:27:22.992Z,63.68
2022-09-14T04:28:16.839Z,63.71
2022-09-14T04:28:47.055Z,63.73
2022-09-14T04:29:19.261Z,63.75
2022-09-14T04:29:51.022Z,63.79
2022-09-14T04:30:22.995Z,63.84
2022-09-14T04:31:02.062Z,63.83
2022-09-14T04:31:33.844Z,63.87
2022-09-14T04:32:06.649Z,63.88
2022-09-14T04:32:38.397Z,63.89
2022-09-14T04:33:10.253Z,63.88
2022-09-14T04:33:43.789Z,63.88
2022-09-14T04:34:15.822Z,63.91
2022-09-14T04:34:48.356Z,63.88
2022-09-14T04:35:20.127Z,63.85
2022-09-14T04:36:05.041Z,63.82
2022-09-14T04:36:36.823Z,63.80
2022-09-14T04:37:08.617Z,63.79
2022-09-14T04:37:40.388Z,63.78
2022-09-14T04:38:12.244Z,63.78
2022-09-14T04:38:44.816Z,63.75
2022-09-14T04:39:16.711Z,63.74
2022-09-14T04:39:48.454Z,63.67
2022-09-14T04:40:21.592Z,63.64
2022-09-14T04:40:53.339Z,63.72
2022-09-14T04:41:26.139Z,63.64
2022-09-14T04:41:58.081Z,63.68
2022-09-14T04:42:31.027Z,63.66
2022-09-14T04:43:03.692Z,63.61
2022-09-14T04:43:35.878Z,63.65
2022-09-14T04:44:07.608Z,63.64
2022-09-14T04:44:39.503Z,63.63
2022-09-14T04:45:11.139Z,63.66
2022-09-14T04:45:42.845Z,63.64
2022-09-14T04:46:20.367Z,63.73
2022-09-14T04:46:52.635Z,63.70
2022-09-14T04:47:24.574Z,63.64
2022-09-14T04:47:56.278Z,63.65
2022-09-14T04:48:33.105Z,63.64
2022-09-14T04:49:06.340Z,63.54
2022-09-14T04:49:38.086Z,63.57
2022-09-14T04:50:09.813Z,63.55
2022-09-14T04:50:43.134Z,63.49
2022-09-14T04:51:20.518Z,63.56
2022-09-14T04:51:52.287Z,63.55
2022-09-14T04:52:24.389Z,63.56
2022-09-14T04:52:56.167Z,63.68
2022-09-14T04:53:28.013Z,63.60
2022-09-14T04:54:01.431Z,63.73
2022-09-14T04:54:33.436Z,63.61
2022-09-14T04:55:06.800Z,63.69
2022-09-14T04:55:38.495Z,63.67
2022-09-14T04:56:12.515Z,63.72
2022-09-14T04:56:45.226Z,63.70
2022-09-14T04:57:16.924Z,63.73
2022-09-14T04:57:49.012Z,63.61
2022-09-14T04:58:20.646Z,63.59
2022-09-14T04:58:55.449Z,63.55
2022-09-14T04:59:27.197Z,63.59
2022-09-14T04:59:58.862Z,63.55
2022-09-14T05:00:33.681Z,63.53
2022-09-14T05:01:16.959Z,63.54
2022-09-14T05:01:49.166Z,63.53
2022-09-14T05:02:22.752Z,63.56
2022-09-14T05:02:54.787Z,63.53
2022-09-14T05:03:26.539Z,63.37
2022-09-14T05:03:58.632Z,63.45
2022-09-14T05:04:30.460Z,63.51
2022-09-14T05:05:02.258Z,63.52
2022-09-14T05:05:36.273Z,63.38
2022-09-14T05:06:11.305Z,63.45
2022-09-14T05:06:43.984Z,63.49
2022-09-14T05:07:16.148Z,63.42
2022-09-14T05:07:47.940Z,63.52
2022-09-14T05:08:19.611Z,63.49
2022-09-14T05:08:52.396Z,63.53
2022-09-14T05:09:24.205Z,63.49
2022-09-14T05:09:56.107Z,63.55
2022-09-14T05:10:27.931Z,63.53
2022-09-14T05:10:59.744Z,63.49
2022-09-14T05:11:33.949Z,63.49
2022-09-14T05:12:05.913Z,63.52
2022-09-14T05:12:37.767Z,63.51
2022-09-14T05:13:09.440Z,63.47
2022-09-14T05:13:43.381Z,63.51
2022-09-14T05:14:18.156Z,63.52
2022-09-14T05:14:50.292Z,63.58
2022-09-14T05:15:21.961Z,63.55
2022-09-14T05:15:54.107Z,63.58
2022-09-14T05:16:34.801Z,63.62
2022-09-14T05:17:06.413Z,63.61
2022-09-14T05:17:38.159Z,63.61
2022-09-14T05:18:10.351Z,63.67
2022-09-14T05:18:43.699Z,63.70
2022-09-14T05:19:17.806Z,63.74
2022-09-14T05:19:49.581Z,63.72
2022-09-14T05:20:21.536Z,63.68
2022-09-14T05:20:53.300Z,63.64
2022-09-14T05:21:25.470Z,63.66
2022-09-14T05:21:57.312Z,63.63
2022-09-14T05:22:29.079Z,63.60
2022-09-14T05:23:00.743Z,63.60
2022-09-14T05:23:33.646Z,63.61
2022-09-14T05:24:12.080Z,63.61
2022-09-14T05:24:43.859Z,63.66
2022-09-14T05:25:15.688Z,63.64
2022-09-14T05:25:52.942Z,63.64
2022-09-14T05:26:26.197Z,63.62
2022-09-14T05:27:00.955Z,63.57
2022-09-14T05:27:33.983Z,63.65
2022-09-14T05:28:05.809Z,63.61
2022-09-14T05:28:37.907Z,63.67
2022-09-14T05:29:13.403Z,63.63
2022-09-14T05:29:45.334Z,63.63
2022-09-14T05:30:17.368Z,63.63
2022-09-14T05:30:49.158Z,63.72
2022-09-14T05:31:23.359Z,63.63
2022-09-14T05:31:55.532Z,63.72
2022-09-14T05:32:27.489Z,63.69
2022-09-14T05:32:59.284Z,63.68
2022-09-14T05:33:31.242Z,63.76
2022-09-14T05:34:03.124Z,63.80
2022-09-14T05:34:34.797Z,63.74
2022-09-14T05:35:06.915Z,63.82
2022-09-14T05:35:38.718Z,63.86
2022-09-14T05:36:10.513Z,63.85
2022-09-14T05:36:42.322Z,63.84
2022-09-14T05:37:14.074Z,63.86
2022-09-14T05:37:46.054Z,63.91
2022-09-14T05:38:18.110Z,63.84
2022-09-14T05:38:50.488Z,63.89
2022-09-14T05:39:24.673Z,63.85
2022-09-14T05:39:56.561Z,63.91
2022-09-14T05:40:28.349Z,63.89
2022-09-14T05:41:00.145Z,63.84
2022-09-14T05:41:32.078Z,63.92
2022-09-14T05:42:04.171Z,63.86
2022-09-14T05:42:36.159Z,63.92
2022-09-14T05:43:08.909Z,63.89
2022-09-14T05:43:41.466Z,63.91
2022-09-14T05:44:13.215Z,63.82
2022-09-14T05:44:45.020Z,63.84
2022-09-14T05:45:16.777Z,63.89
2022-09-14T05:45:49.422Z,63.89
2022-09-14T05:46:21.698Z,63.84
2022-09-14T05:46:53.553Z,63.75
2022-09-14T05:47:25.313Z,63.80
2022-09-14T05:48:01.527Z,63.73
2022-09-14T05:48:35.263Z,63.62
2022-09-14T05:49:07.069Z,63.58
2022-09-14T05:49:38.834Z,63.59
2022-09-14T05:50:10.496Z,63.63
2022-09-14T05:50:42.627Z,63.64
2022-09-14T05:51:16.915Z,63.56
2022-09-14T05:51:48.664Z,63.50
2022-09-14T05:52:21.562Z,63.59
2022-09-14T05:52:54.956Z,63.45
2022-09-14T05:53:27.591Z,63.48
2022-09-14T05:54:00.526Z,63.54
2022-09-14T05:54:32.233Z,63.52
2022-09-14T05:55:04.459Z,63.46
2022-09-14T05:55:36.290Z,63.48
2022-09-14T05:56:13.180Z,63.49
2022-09-14T05:56:45.260Z,63.44
2022-09-14T05:57:17.132Z,63.41
2022-09-14T05:57:50.116Z,63.43
2022-09-14T05:58:21.965Z,63.44
2022-09-14T05:58:54.228Z,63.50
2022-09-14T05:59:25.879Z,63.45
2022-09-14T05:59:57.940Z,63.50
2022-09-14T06:00:30.907Z,63.43
2022-09-14T06:01:24.430Z,63.51
2022-09-14T06:01:56.461Z,63.45
2022-09-14T06:02:28.425Z,63.51
2022-09-14T06:03:00.296Z,63.38
2022-09-14T06:03:31.932Z,63.36
2022-09-14T06:04:03.746Z,63.22
2022-09-14T06:04:35.777Z,63.25
2022-09-14T06:05:07.812Z,63.12
2022-09-14T06:05:39.673Z,63.05
2022-09-14T06:06:13.602Z,62.97
2022-09-14T06:06:56.136Z,62.96
2022-09-14T06:07:37.832Z,62.86
2022-09-14T06:08:09.586Z,62.82
2022-09-14T06:08:42.309Z,62.71
2022-09-14T06:09:15.751Z,62.64
2022-09-14T06:09:47.516Z,62.58
2022-09-14T06:10:20.801Z,62.55
2022-09-14T06:10:53.023Z,62.50
2022-09-14T06:11:30.593Z,62.48
2022-09-14T06:12:02.429Z,62.47
2022-09-14T06:12:34.560Z,62.42
2022-09-14T06:13:06.362Z,62.38
2022-09-14T06:13:38.423Z,62.39
2022-09-14T06:14:10.374Z,62.42
2022-09-14T06:14:41.985Z,62.49
2022-09-14T06:15:13.852Z,62.45
2022-09-14T06:15:45.497Z,62.44
2022-09-14T06:16:19.421Z,62.39
2022-09-14T06:16:51.208Z,62.46
2022-09-14T06:17:23.125Z,62.43
2022-09-14T06:17:55.414Z,62.40
2022-09-14T06:18:30.334Z,62.43
2022-09-14T06:19:02.227Z,62.41
2022-09-14T06:19:34.202Z,62.39
2022-09-14T06:20:09.624Z,62.40
2022-09-14T06:20:50.914Z,62.40
2022-09-14T06:21:26.832Z,62.35
2022-09-14T06:21:58.616Z,62.29
2022-09-14T06:22:31.552Z,62.25
2022-09-14T06:23:03.293Z,62.13
2022-09-14T06:23:36.241Z,62.12
2022-09-14T06:24:11.992Z,61.95
2022-09-14T06:24:43.731Z,62.05
2022-09-14T06:25:15.529Z,61.99
2022-09-14T06:25:47.203Z,61.99
2022-09-14T06:26:19.515Z,62.00
2022-09-14T06:26:51.329Z,61.96
2022-09-14T06:27:23.511Z,62.02
2022-09-14T06:27:55.294Z,62.13
2022-09-14T06:28:28.671Z,62.14
2022-09-14T06:29:00.428Z,62.19
2022-09-14T06:29:32.153Z,62.21
2022-09-14T06:30:05.308Z,62.27
2022-09-14T06:30:36.936Z,62.32
2022-09-14T06:31:12.274Z,62.35
2022-09-14T06:31:44.044Z,62.38
2022-09-14T06:32:16.263Z,62.42
2022-09-14T06:32:48.043Z,62.35
2022-09-14T06:33:20.410Z,62.28
2022-09-14T06:33:52.538Z,62.19
2022-09-14T06:34:24.306Z,62.16
2022-09-14T06:34:56.089Z,62.01
2022-09-14T06:35:27.870Z,61.99
2022-09-14T06:36:12.194Z,61.96
2022-09-14T06:36:45.007Z,61.96
2022-09-14T06:37:16.746Z,61.93
2022-09-14T06:37:48.488Z,61.89
2022-09-14T06:38:20.494Z,61.93
2022-09-14T06:38:53.221Z,61.93
2022-09-14T06:39:25.164Z,61.84
2022-09-14T06:39:57.025Z,61.89
2022-09-14T06:40:29.149Z,61.88
2022-09-14T06:41:06.021Z,61.90
2022-09-14T06:41:37.842Z,61.84
2022-09-14T06:42:09.749Z,61.85
2022-09-14T06:42:41.704Z,61.95
2022-09-14T06:43:13.417Z,61.82
2022-09-14T06:43:45.738Z,61.75
2022-09-14T06:44:17.920Z,61.80
2022-09-14T06:44:49.596Z,61.77
2022-09-14T06:45:21.353Z,61.73
2022-09-14T06:46:00.417Z,61.75
2022-09-14T06:46:33.657Z,61.61
2022-09-14T06:47:06.619Z,61.62
2022-09-14T06:47:38.358Z,61.47
2022-09-14T06:48:10.222Z,61.44
2022-09-14T06:48:46.125Z,61.51
2022-09-14T06:49:20.384Z,61.43
2022-09-14T06:49:52.208Z,61.35
2022-09-14T06:50:24.845Z,61.41
2022-09-14T06:50:56.892Z,61.31
2022-09-14T06:51:30.176Z,61.30
2022-09-14T06:52:02.088Z,61.30
2022-09-14T06:52:36.024Z,61.12
2022-09-14T06:53:07.784Z,61.07
2022-09-14T06:53:39.963Z,61.03
2022-09-14T06:54:13.504Z,61.05
2022-09-14T06:54:46.472Z,61.04
2022-09-14T06:55:18.608Z,61.11
2022-09-14T06:55:50.558Z,61.01
2022-09-14T06:56:22.502Z,61.03
2022-09-14T06:56:54.791Z,61.09
2022-09-14T06:57:26.600Z,61.06
2022-09-14T06:57:58.379Z,61.04
2022-09-14T06:58:30.007Z,61.10
2022-09-14T06:59:02.906Z,61.10
2022-09-14T06:59:34.689Z,61.13
2022-09-14T07:00:07.117Z,61.13
2022-09-14T07:00:38.942Z,61.09
2022-09-14T07:01:14.332Z,61.03
2022-09-14T07:01:49.394Z,60.97
2022-09-14T07:02:21.625Z,61.00
2022-09-14T07:02:55.683Z,61.07
2022-09-14T07:03:27.633Z,61.13
2022-09-14T07:04:01.104Z,61.08
2022-09-14T07:04:32.912Z,61.17
2022-09-14T07:05:05.018Z,61.21
2022-09-14T07:05:36.833Z,61.24
2022-09-14T07:06:11.685Z,61.31
2022-09-14T07:06:46.253Z,61.31
2022-09-14T07:07:18.045Z,61.24
2022-09-14T07:07:52.760Z,61.27
2022-09-14T07:08:28.133Z,61.25
2022-09-14T07:09:03.558Z,61.24
2022-09-14T07:09:36.305Z,61.28
2022-09-14T07:10:08.257Z,61.32
2022-09-14T07:10:42.589Z,61.28
2022-09-14T07:11:17.033Z,61.30
2022-09-14T07:11:48.834Z,61.29
2022-09-14T07:12:20.615Z,61.25
2022-09-14T07:12:52.580Z,61.30
2022-09-14T07:13:24.437Z,61.31
2022-09-14T07:13:59.588Z,61.25
2022-09-14T07:14:32.501Z,61.16
2022-09-14T07:15:06.268Z,61.12
2022-09-14T07:15:38.190Z,61.05
2022-09-14T07:16:11.618Z,61.06
2022-09-14T07:16:45.445Z,61.10
2022-09-14T07:17:17.820Z,61.10
2022-09-14T07:17:49.650Z,60.92
2022-09-14T07:18:22.822Z,60.94
2022-09-14T07:18:56.088Z,60.94
2022-09-14T07:19:27.898Z,60.89
2022-09-14T07:20:01.124Z,60.72
2022-09-14T07:20:33.410Z,60.70
2022-09-14T07:21:09.538Z,60.52
2022-09-14T07:21:41.959Z,60.53
2022-09-14T07:22:13.667Z,60.50
2022-09-14T07:22:45.663Z,60.51
2022-09-14T07:23:17.509Z,60.47
2022-09-14T07:23:50.069Z,60.38
2022-09-14T07:24:22.057Z,60.37
2022-09-14T07:24:53.942Z,60.40
2022-09-14T07:25:25.821Z,60.31
2022-09-14T07:26:07.516Z,60.30
2022-09-14T07:26:44.137Z,60.32
2022-09-14T07:27:16.682Z,60.23
2022-09-14T07:27:48.411Z,60.16
2022-09-14T07:28:20.252Z,60.20
2022-09-14T07:29:01.927Z,60.26
2022-09-14T07:29:33.769Z,60.29
2022-09-14T07:30:07.558Z,60.35
2022-09-14T07:30:41.185Z,60.38